Terminal Aerodrome Forecast
Issued by NWS Albany, NY

Home | Current Version | Previous Version | Text Only | Print | Product List | Glossary On
Versions: 1 2 3 4 5 6 7 8 9 10 11 12 13 14 15 16
000
FTUS41 KALY 281400 AAB
TAFPOU
TAF AMD
KPOU 281436Z 2815/2912 23008KT P6SM VCSH BKN017 BKN022 OVC035
     FM281530 23008KT P6SM BKN035
     FM281800 23010KT 3SM -TSRA BR BKN030CB BKN070
     FM282100 26012KT P6SM BKN050
     FM290500 26005KT P6SM SCT050=

USA.gov is the U.S. government's official web portal to all federal, state and local government web resources and services.